Time;durP1;ratioP1;P1;durP2;ratioP2;P2;SDS_P1;SDS_P2;PMS_P1;PMS_P2;Temp;Humidity;BMP_temperature;BMP_pressure;BME280_temperature;BME280_humidity;BME280_pressure;Samples;Min_cycle;Max_cycle;Signal;HPM_P1;HPM_P2
2022/05/25 00:01:16;;;;;;;1.42;1.00;;;;;;;-141.50;100.00;63355.56;5094264;28;20582;-83
2022/05/25 00:03:42;;;;;;;4.28;1.30;;;;;;;-141.50;100.00;63355.56;5071685;28;20078;-82
2022/05/25 00:06:10;;;;;;;2.20;1.30;;;;;;;-141.50;100.00;63355.56;5053433;28;20053;-82
2022/05/25 00:08:40;;;;;;;3.47;1.05;;;;;;;-141.50;100.00;63355.56;5070979;28;20048;-83
2022/05/25 00:11:08;;;;;;;2.20;1.20;;;;;;;-141.50;100.00;63355.56;5073284;28;20079;-81
2022/05/25 00:13:36;;;;;;;1.88;1.05;;;;;;;-141.50;100.00;63355.56;5073995;28;20103;-81
2022/05/25 00:16:04;;;;;;;4.00;1.25;;;;;;;-141.50;100.00;63355.56;5055935;28;20135;-81
2022/05/25 00:18:31;;;;;;;3.00;1.17;;;;;;;-141.50;100.00;63355.56;5055683;28;20457;-82
2022/05/25 00:20:58;;;;;;;2.55;1.25;;;;;;;-141.50;100.00;63355.56;5073999;28;20052;-82
2022/05/25 00:23:25;;;;;;;3.50;1.30;;;;;;;-141.50;100.00;63355.56;5062210;28;20048;-79
2022/05/25 00:25:51;;;;;;;1.70;1.20;;;;;;;-141.50;100.00;63355.56;5065578;28;20070;-83
2022/05/25 00:28:21;;;;;;;2.75;1.25;;;;;;;-141.50;100.00;63355.56;5115436;28;20708;-83
2022/05/25 00:30:50;;;;;;;2.28;1.38;;;;;;;-141.50;100.00;63355.56;5108164;28;20526;-83
2022/05/25 00:33:21;;;;;;;2.45;1.30;;;;;;;-141.50;100.00;63355.56;5106622;28;20075;-82
2022/05/25 00:35:49;;;;;;;5.07;1.30;;;;;;;-141.50;100.00;63355.56;5131465;28;20080;-82
2022/05/25 00:38:15;;;;;;;2.10;1.20;;;;;;;-141.50;100.00;63355.56;5132616;28;20066;-83
2022/05/25 00:40:44;;;;;;;4.65;1.52;;;;;;;-141.50;100.00;63355.56;5132201;28;20052;-81
2022/05/25 00:43:13;;;;;;;3.20;1.40;;;;;;;-141.50;100.00;63355.56;5087142;28;20039;-80
2022/05/25 00:45:50;;;;;;;2.42;1.40;;;;;;;-141.50;100.00;63355.56;5102945;28;20047;-81
2022/05/25 00:48:23;;;;;;;2.10;1.40;;;;;;;-141.50;100.00;63355.56;5100844;28;20528;-81
2022/05/25 00:53:35;;;;;;;2.08;1.23;;;;;;;-141.50;100.00;63355.56;5102402;28;20052;-84
2022/05/25 00:56:04;;;;;;;5.78;1.52;;;;;;;-141.50;100.00;63355.56;5100173;28;20032;-84
2022/05/25 00:58:34;;;;;;;3.03;1.33;;;;;;;-141.50;100.00;63355.56;5071326;28;20490;-83
2022/05/25 01:01:01;;;;;;;3.85;1.50;;;;;;;-141.50;100.00;63355.56;5068041;28;20071;-82
2022/05/25 01:03:28;;;;;;;2.35;1.10;;;;;;;-141.50;100.00;63355.56;5089622;28;20072;-81
2022/05/25 01:06:15;;;;;;;2.17;1.02;;;;;;;-141.50;100.00;63355.56;5110297;28;20047;-82
2022/05/25 01:09:23;;;;;;;3.40;1.33;;;;;;;-141.50;100.00;63355.56;5115533;28;20051;-83
2022/05/25 01:12:11;;;;;;;4.00;1.60;;;;;;;-141.50;100.00;63355.56;5067747;28;20090;-83
2022/05/25 01:14:59;;;;;;;2.95;1.40;;;;;;;-141.50;100.00;63355.56;5115051;28;20508;-83
2022/05/25 01:17:44;;;;;;;3.97;1.45;;;;;;;-141.50;100.00;63355.56;5116069;28;20048;-84
2022/05/25 01:20:18;;;;;;;2.10;1.23;;;;;;;-141.50;100.00;63355.56;5106188;28;20193;-84
2022/05/25 01:22:53;;;;;;;2.05;1.23;;;;;;;-141.50;100.00;63355.56;5095173;28;20070;-84
2022/05/25 01:26:03;;;;;;;3.55;1.10;;;;;;;-141.50;100.00;63355.56;5095152;28;20071;-83
2022/05/25 01:28:50;;;;;;;4.45;1.63;;;;;;;-141.50;100.00;63355.56;5077462;28;20056;-83
2022/05/25 01:31:24;;;;;;;4.35;1.50;;;;;;;-141.50;100.00;63355.56;5095069;28;20048;-81
2022/05/25 01:34:19;;;;;;;1.85;1.17;;;;;;;-141.50;100.00;63355.56;5077261;28;20067;-83
2022/05/25 01:37:02;;;;;;;1.83;1.08;;;;;;;-141.50;100.00;63355.56;5103679;28;20055;-83
2022/05/25 01:39:32;;;;;;;2.97;1.50;;;;;;;-141.50;100.00;63355.56;5078459;28;20052;-83
2022/05/25 01:42:07;;;;;;;1.90;1.20;;;;;;;-141.50;100.00;63355.56;5095563;28;20059;-84
2022/05/25 01:44:58;;;;;;;4.93;1.40;;;;;;;-141.50;100.00;63355.56;5094911;28;20127;-83
2022/05/25 01:47:28;;;;;;;2.03;1.23;;;;;;;-141.50;100.00;63355.56;5079348;28;20074;-82
2022/05/25 01:50:08;;;;;;;2.45;1.17;;;;;;;-141.50;100.00;63355.56;5089436;28;20593;-84
2022/05/25 01:52:39;;;;;;;1.63;1.13;;;;;;;-141.50;100.00;63355.56;5069123;28;20078;-82
2022/05/25 01:55:12;;;;;;;2.38;1.30;;;;;;;-141.50;100.00;63355.56;5083811;28;20102;-81
2022/05/25 01:57:46;;;;;;;1.73;1.00;;;;;;;-141.50;100.00;63355.56;5070735;28;20040;-83
2022/05/25 02:00:44;;;;;;;4.50;1.30;;;;;;;-141.50;100.00;63355.56;5084805;28;20058;-83
2022/05/25 02:06:18;;;;;;;4.22;1.33;;;;;;;-141.50;100.00;63355.56;5113116;28;20070;-83
2022/05/25 02:09:04;;;;;;;2.72;1.30;;;;;;;-141.50;100.00;63355.56;5069702;28;20059;-83
2022/05/25 02:11:33;;;;;;;4.10;1.30;;;;;;;-141.50;100.00;63355.56;5094498;28;20122;-82
2022/05/25 02:14:37;;;;;;;3.30;1.30;;;;;;;-141.50;100.00;63355.56;5076345;28;20068;-81
2022/05/25 02:17:18;;;;;;;2.65;1.45;;;;;;;-141.50;100.00;63355.56;5082809;28;20498;-82
2022/05/25 02:20:07;;;;;;;5.15;1.70;;;;;;;-141.50;100.00;63355.56;5094186;28;20083;-81
2022/05/25 02:22:42;;;;;;;3.28;1.23;;;;;;;-141.50;100.00;63355.56;5093837;28;20385;-83
2022/05/25 02:25:14;;;;;;;2.38;1.00;;;;;;;-141.50;100.00;63355.56;5098072;28;20087;-82
2022/05/25 02:28:09;;;;;;;2.50;1.42;;;;;;;-141.50;100.00;63355.56;5097589;28;20523;-83
2022/05/25 02:30:39;;;;;;;2.58;1.45;;;;;;;-141.50;100.00;63355.56;5079452;28;20074;-81
2022/05/25 02:33:22;;;;;;;2.95;1.60;;;;;;;-141.50;100.00;63355.56;5099084;28;20048;-83
2022/05/25 02:35:50;;;;;;;2.15;1.05;;;;;;;-141.50;100.00;63355.56;5098804;28;20051;-83
2022/05/25 02:38:17;;;;;;;3.78;1.50;;;;;;;-141.50;100.00;63355.56;5080748;28;20163;-83
2022/05/25 02:40:44;;;;;;;6.32;1.30;;;;;;;-141.50;100.00;63355.56;5098696;28;20056;-83
2022/05/25 02:43:11;;;;;;;2.90;1.50;;;;;;;-141.50;100.00;63355.56;5077788;28;20141;-82
2022/05/25 02:45:38;;;;;;;3.95;1.23;;;;;;;-141.50;100.00;63355.56;5076751;28;20079;-82
2022/05/25 02:48:06;;;;;;;2.55;1.50;;;;;;;-141.50;100.00;63355.56;5060738;28;20524;-84
2022/05/25 02:50:32;;;;;;;2.85;1.20;;;;;;;-141.50;100.00;63355.56;5080041;28;20040;-82
2022/05/25 02:52:59;;;;;;;2.85;1.33;;;;;;;-141.50;100.00;63355.56;5084951;28;20139;-82
2022/05/25 02:55:30;;;;;;;1.80;1.10;;;;;;;-141.50;100.00;63355.56;5080254;28;20097;-82
2022/05/25 02:57:59;;;;;;;3.95;1.40;;;;;;;-141.50;100.00;63355.56;5110846;28;20070;-82
2022/05/25 03:00:26;;;;;;;4.60;1.60;;;;;;;-141.50;100.00;63355.56;5100168;28;20073;-82
2022/05/25 03:02:54;;;;;;;4.68;1.80;;;;;;;-141.50;100.00;63355.56;5117767;28;20062;-83
2022/05/25 03:05:21;;;;;;;6.15;1.45;;;;;;;-141.50;100.00;63355.56;5117816;28;20143;-83
2022/05/25 03:07:47;;;;;;;5.65;1.63;;;;;;;-141.50;100.00;63355.56;5117572;28;20104;-83
2022/05/25 03:10:14;;;;;;;4.47;1.48;;;;;;;-141.50;100.00;63355.56;5116707;28;20075;-83
2022/05/25 03:12:41;;;;;;;3.22;1.67;;;;;;;-141.50;100.00;63355.56;5115083;28;20065;-82
2022/05/25 03:15:13;;;;;;;3.88;2.00;;;;;;;-141.50;100.00;63355.56;5131521;28;20044;-83
2022/05/25 03:17:40;;;;;;;3.03;1.52;;;;;;;-141.50;100.00;63355.56;5118235;28;20055;-82
2022/05/25 03:20:07;;;;;;;3.88;1.85;;;;;;;-141.50;100.00;63355.56;5131721;28;20040;-81
2022/05/25 03:22:36;;;;;;;3.13;1.73;;;;;;;-141.50;100.00;63355.56;5117813;28;20047;-81
2022/05/25 03:25:06;;;;;;;3.92;2.30;;;;;;;-141.50;100.00;63355.56;5103827;28;20044;-81
2022/05/25 03:27:32;;;;;;;6.30;2.55;;;;;;;-141.50;100.00;63355.56;5083047;28;20053;-82
2022/05/25 03:29:59;;;;;;;5.80;2.70;;;;;;;-141.50;100.00;63355.56;5088829;28;20074;-82
2022/05/25 03:32:27;;;;;;;5.05;2.35;;;;;;;-141.50;100.00;63355.56;5086870;28;20129;-83
2022/05/25 03:34:53;;;;;;;6.00;2.30;;;;;;;-141.50;100.00;63355.56;5084715;28;20077;-83
2022/05/25 03:37:20;;;;;;;4.93;2.50;;;;;;;-141.50;100.00;63355.56;5084409;28;20048;-83
2022/05/25 03:39:46;;;;;;;3.88;2.38;;;;;;;-141.50;100.00;63355.56;5077049;28;20052;-84
2022/05/25 03:42:17;;;;;;;3.75;2.03;;;;;;;-141.50;100.00;63355.56;5058905;28;20055;-82
2022/05/25 03:44:44;;;;;;;3.53;1.85;;;;;;;-141.50;100.00;63355.56;5075782;28;20045;-83
2022/05/25 03:47:10;;;;;;;4.35;2.13;;;;;;;-141.50;100.00;63355.56;5077889;28;20098;-82
2022/05/25 03:49:37;;;;;;;3.95;2.10;;;;;;;-141.50;100.00;63355.56;5098076;28;20052;-83
2022/05/25 03:52:04;;;;;;;3.22;1.80;;;;;;;-141.50;100.00;63355.56;5085990;28;20052;-84
2022/05/25 03:54:31;;;;;;;5.20;1.85;;;;;;;-141.50;100.00;63355.56;5117044;28;20118;-82
2022/05/25 03:56:58;;;;;;;4.97;1.95;;;;;;;-141.50;100.00;63355.56;5116188;28;20086;-82
2022/05/25 03:59:25;;;;;;;7.78;1.88;;;;;;;-141.50;100.00;63355.56;5116863;28;20396;-82
2022/05/25 04:01:51;;;;;;;6.57;1.92;;;;;;;-141.50;100.00;63355.56;5114965;28;20052;-83
2022/05/25 04:04:21;;;;;;;4.70;1.92;;;;;;;-141.50;100.00;63355.56;5099323;28;20051;-82
2022/05/25 04:06:47;;;;;;;2.78;1.60;;;;;;;-141.50;100.00;63355.56;5096897;28;20051;-82
2022/05/25 04:09:15;;;;;;;5.95;1.40;;;;;;;-141.50;100.00;63355.56;5093871;28;20054;-81
2022/05/25 04:11:42;;;;;;;3.47;1.58;;;;;;;-141.50;100.00;63355.56;5092821;28;20077;-81
2022/05/25 04:14:09;;;;;;;4.85;1.63;;;;;;;-141.50;100.00;63355.56;5112393;28;20511;-83
2022/05/25 04:16:36;;;;;;;2.58;1.40;;;;;;;-141.50;100.00;63355.56;5076606;28;20127;-82
2022/05/25 04:19:03;;;;;;;1.85;1.40;;;;;;;-141.50;100.00;63355.56;5082581;28;20507;-81
2022/05/25 04:21:29;;;;;;;2.88;1.58;;;;;;;-141.50;100.00;63355.56;5083473;28;21031;-84
2022/05/25 04:23:56;;;;;;;2.83;1.58;;;;;;;-141.50;100.00;63355.56;5082070;28;20587;-83
2022/05/25 04:26:23;;;;;;;3.65;1.30;;;;;;;-141.50;100.00;63355.56;5082784;28;20048;-83
2022/05/25 04:28:51;;;;;;;4.53;1.85;;;;;;;-141.50;100.00;63355.56;5066556;28;20082;-84
2022/05/25 04:31:17;;;;;;;4.38;2.03;;;;;;;-141.50;100.00;63355.56;5067078;28;20410;-83
2022/05/25 04:33:44;;;;;;;3.28;1.77;;;;;;;-141.50;100.00;63355.56;5084509;28;20044;-85
2022/05/25 04:36:11;;;;;;;3.63;1.60;;;;;;;-141.50;100.00;63355.56;5071016;28;20056;-84
2022/05/25 04:38:37;;;;;;;4.18;2.10;;;;;;;-141.50;100.00;63355.56;5073800;28;20080;-82
2022/05/25 04:41:04;;;;;;;2.45;1.80;;;;;;;-141.50;100.00;63355.56;5069034;28;20056;-83
2022/05/25 04:43:31;;;;;;;4.82;2.20;;;;;;;-141.50;100.00;63355.56;5073370;28;20049;-82
2022/05/25 04:46:01;;;;;;;5.18;1.65;;;;;;;-141.50;100.00;63355.56;5082374;28;20024;-83
2022/05/25 04:48:28;;;;;;;6.63;1.90;;;;;;;-141.50;100.00;63355.56;5081596;28;20060;-82
2022/05/25 04:50:59;;;;;;;6.50;2.13;;;;;;;-141.50;100.00;63355.56;5087323;28;20028;-83
2022/05/25 04:53:26;;;;;;;6.72;1.88;;;;;;;-141.50;100.00;63355.56;5092188;28;20102;-81
2022/05/25 04:58:41;;;;;;;6.20;2.00;;;;;;;-141.50;100.00;63355.56;5105194;28;20052;-82
2022/05/25 05:01:11;;;;;;;3.67;1.95;;;;;;;-141.50;100.00;63355.56;5095276;28;20044;-83
2022/05/25 05:03:38;;;;;;;5.13;2.80;;;;;;;-141.50;100.00;63355.56;5089897;28;20044;-84
2022/05/25 05:06:08;;;;;;;4.18;2.13;;;;;;;-141.50;100.00;63355.56;5092629;28;20076;-83
2022/05/25 05:08:35;;;;;;;5.97;2.30;;;;;;;-141.50;100.00;63355.56;5093367;28;20077;-82
2022/05/25 05:11:10;;;;;;;5.43;1.85;;;;;;;-141.50;100.00;63355.56;5076407;28;20601;-82
2022/05/25 05:13:40;;;;;;;6.82;2.08;;;;;;;-141.50;100.00;63355.56;5076805;28;20198;-83
2022/05/25 05:16:16;;;;;;;5.35;2.00;;;;;;;-141.50;100.00;63355.56;5077353;28;20413;-84
2022/05/25 05:18:43;;;;;;;2.47;1.60;;;;;;;-141.50;100.00;63355.56;5095766;28;20087;-83
2022/05/25 05:21:10;;;;;;;3.85;1.92;;;;;;;-141.50;100.00;63355.56;5096463;28;20051;-84
2022/05/25 05:23:39;;;;;;;7.85;3.60;;;;;;;-141.50;100.00;63355.56;5096396;28;20052;-84
2022/05/25 05:26:06;;;;;;;9.52;2.80;;;;;;;-141.50;100.00;63355.56;5096219;28;20048;-83
2022/05/25 05:28:35;;;;;;;11.75;5.35;;;;;;;-141.50;100.00;63355.56;5096375;28;20056;-84
2022/05/25 05:31:03;;;;;;;6.38;2.80;;;;;;;-141.50;100.00;63355.56;5078360;28;20469;-83
2022/05/25 05:33:30;;;;;;;2.65;1.88;;;;;;;-141.50;100.00;63355.56;5096892;28;20075;-83
2022/05/25 05:36:10;;;;;;;2.70;1.80;;;;;;;-141.50;100.00;63355.56;5091231;28;20044;-84
2022/05/25 05:38:42;;;;;;;4.88;1.40;;;;;;;-141.50;100.00;63355.56;5089543;28;20512;-82
2022/05/25 05:41:14;;;;;;;3.40;1.33;;;;;;;-141.50;100.00;63355.56;5090831;28;20121;-83
2022/05/25 05:43:41;;;;;;;4.55;1.20;;;;;;;-141.50;100.00;63355.56;5091073;28;20539;-82
2022/05/25 05:46:09;;;;;;;5.90;1.20;;;;;;;-141.50;100.00;63355.56;5089418;28;20609;-83
2022/05/25 05:48:36;;;;;;;2.72;1.00;;;;;;;-141.50;100.00;63355.56;5091659;28;20040;-82
2022/05/25 05:51:04;;;;;;;5.50;0.90;;;;;;;-141.50;100.00;63355.56;5087017;28;20094;-83
2022/05/25 05:53:31;;;;;;;2.53;1.00;;;;;;;-141.50;100.00;63355.56;5080448;28;20048;-80
2022/05/25 05:55:59;;;;;;;3.08;0.80;;;;;;;-141.50;100.00;63355.56;5055060;28;20075;-82
2022/05/25 05:58:26;;;;;;;6.28;1.15;;;;;;;-141.50;100.00;63355.56;5073740;28;20059;-81
2022/05/25 06:00:52;;;;;;;3.50;0.93;;;;;;;-141.50;100.00;63355.56;5074053;28;20481;-81
2022/05/25 06:03:19;;;;;;;1.73;0.70;;;;;;;-141.50;100.00;63355.56;5074932;28;20060;-82
2022/05/25 06:05:45;;;;;;;2.45;1.02;;;;;;;-141.50;100.00;63355.56;5076100;28;20074;-83
2022/05/25 06:08:16;;;;;;;4.72;1.30;;;;;;;-141.50;100.00;63355.56;5075607;28;20587;-83
2022/05/25 06:10:43;;;;;;;2.88;0.98;;;;;;;-141.50;100.00;63355.56;5075814;28;20467;-82
2022/05/25 06:13:10;;;;;;;2.40;1.13;;;;;;;-141.50;100.00;63355.56;5072937;28;20028;-81
2022/05/25 06:21:09;;;;;;;2.75;0.88;;;;;;;-141.50;100.00;63355.56;5113635;28;20040;-83
2022/05/25 06:23:36;;;;;;;3.13;0.73;;;;;;;-141.50;100.00;63355.56;5103089;28;20048;-81
2022/05/25 06:26:04;;;;;;;3.72;0.70;;;;;;;-141.50;100.00;63355.56;5097274;28;20052;-81
2022/05/25 06:28:30;;;;;;;4.03;0.60;;;;;;;-141.50;100.00;63355.56;5103127;28;20083;-83
2022/05/25 06:30:57;;;;;;;1.33;0.80;;;;;;;-141.50;100.00;63355.56;5099671;28;20048;-82
2022/05/25 06:33:27;;;;;;;3.00;0.90;;;;;;;-141.50;100.00;63355.56;5089534;28;20135;-83
2022/05/25 06:36:18;;;;;;;1.63;0.80;;;;;;;-141.50;100.00;63355.56;5092861;28;20078;-82
2022/05/25 06:38:45;;;;;;;2.40;0.90;;;;;;;-141.50;100.00;63355.56;5074671;28;20048;-83
2022/05/25 06:41:13;;;;;;;2.22;1.02;;;;;;;-141.50;100.00;63355.56;5094718;28;20044;-80
2022/05/25 06:43:40;;;;;;;1.40;0.85;;;;;;;-141.50;100.00;63355.56;5081038;28;20075;-82
2022/05/25 06:46:08;;;;;;;7.85;1.02;;;;;;;-141.50;100.00;63355.56;5081425;28;20044;-83
2022/05/25 06:48:47;;;;;;;6.03;0.60;;;;;;;-141.50;100.00;63355.56;5102580;28;20416;-81
2022/05/25 06:51:19;;;;;;;2.95;0.60;;;;;;;-141.50;100.00;63355.56;5097622;28;20049;-80
2022/05/25 06:53:47;;;;;;;1.77;0.80;;;;;;;-141.50;100.00;63355.56;5095223;28;20131;-82
2022/05/25 06:56:14;;;;;;;1.50;0.70;;;;;;;-141.50;100.00;63355.56;5105693;28;20044;-82
2022/05/25 06:58:43;;;;;;;2.38;0.55;;;;;;;-141.50;100.00;63355.56;5080705;28;20094;-82
2022/05/25 07:01:09;;;;;;;6.65;0.75;;;;;;;-141.50;100.00;63355.56;5070345;28;20060;-81
2022/05/25 07:03:38;;;;;;;3.83;0.80;;;;;;;-141.50;100.00;63355.56;5089142;28;20048;-82
2022/05/25 07:06:06;;;;;;;3.05;0.70;;;;;;;-141.50;100.00;63355.56;5089845;28;20052;-81
2022/05/25 07:08:38;;;;;;;4.57;0.80;;;;;;;-141.50;100.00;63355.56;5089181;28;20113;-81
2022/05/25 07:11:05;;;;;;;4.70;0.70;;;;;;;-141.50;100.00;63355.56;5091150;28;20090;-81
2022/05/25 07:13:33;;;;;;;2.05;0.70;;;;;;;-141.50;100.00;63355.56;5093788;28;20478;-81
2022/05/25 07:16:03;;;;;;;3.08;0.90;;;;;;;-141.50;100.00;63355.56;5094985;28;20047;-82
2022/05/25 07:18:39;;;;;;;7.00;1.50;;;;;;;-141.50;100.00;63355.56;5076584;28;20051;-82
2022/05/25 07:21:12;;;;;;;3.72;1.17;;;;;;;-141.50;100.00;63355.56;5074777;28;20078;-81
2022/05/25 07:23:41;;;;;;;4.07;1.10;;;;;;;-141.50;100.00;63355.56;5092498;28;20087;-81
2022/05/25 07:26:08;;;;;;;3.13;1.17;;;;;;;-141.50;100.00;63355.56;5076570;28;20143;-82
2022/05/25 07:28:36;;;;;;;5.75;1.30;;;;;;;-141.50;100.00;63355.56;5093755;28;20074;-82
2022/05/25 07:31:07;;;;;;;7.43;1.80;;;;;;;-141.50;100.00;63355.56;5099451;28;20028;-82
2022/05/25 07:33:40;;;;;;;5.82;1.52;;;;;;;-141.50;100.00;63355.56;5117424;28;20059;-82
2022/05/25 07:36:10;;;;;;;4.60;1.60;;;;;;;-141.50;100.00;63355.56;5082218;28;20597;-83
2022/05/25 07:38:41;;;;;;;2.60;1.40;;;;;;;-141.50;100.00;63355.56;5101027;28;20048;-83
2022/05/25 07:41:08;;;;;;;5.05;1.50;;;;;;;-141.50;100.00;63355.56;5102599;28;20070;-83
2022/05/25 07:43:38;;;;;;;3.65;1.33;;;;;;;-141.50;100.00;63355.56;5079799;28;20079;-83
2022/05/25 07:46:04;;;;;;;5.72;1.60;;;;;;;-141.50;100.00;63355.56;5097979;28;20138;-84
2022/05/25 07:48:31;;;;;;;8.23;1.30;;;;;;;-141.50;100.00;63355.56;5099421;28;20044;-84
2022/05/25 07:50:58;;;;;;;4.60;1.55;;;;;;;-141.50;100.00;63355.56;5087087;28;20051;-82
2022/05/25 07:56:10;;;;;;;3.47;1.20;;;;;;;-141.50;100.00;63355.56;5119234;28;20074;-84
2022/05/25 07:58:36;;;;;;;2.78;1.40;;;;;;;-141.50;100.00;63355.56;5099792;28;20070;-83
2022/05/25 08:01:10;;;;;;;5.40;1.30;;;;;;;-141.50;100.00;63355.56;5116526;28;20148;-84
2022/05/25 08:06:23;;;;;;;3.87;1.30;;;;;;;-141.50;100.00;63355.56;5113587;28;20189;-81
2022/05/25 08:08:51;;;;;;;4.35;1.73;;;;;;;-141.50;100.00;63355.56;5093653;28;20102;-81
2022/05/25 08:11:20;;;;;;;3.78;1.90;;;;;;;-141.50;100.00;63355.56;5093891;28;20135;-82
2022/05/25 08:13:51;;;;;;;6.03;1.60;;;;;;;-141.50;100.00;63355.56;5094665;28;20549;-80
2022/05/25 08:16:20;;;;;;;2.88;1.20;;;;;;;-141.50;100.00;63355.56;5113670;28;20054;-83
2022/05/25 08:18:48;;;;;;;3.67;1.48;;;;;;;-141.50;100.00;63355.56;5114322;28;20043;-82
2022/05/25 08:21:15;;;;;;;4.32;1.63;;;;;;;-141.50;100.00;63355.56;5114710;28;20419;-82
2022/05/25 08:24:01;;;;;;;5.38;1.42;;;;;;;-141.50;100.00;63355.56;5111855;28;20047;-82
2022/05/25 08:26:28;;;;;;;6.93;1.80;;;;;;;-141.50;100.00;63355.56;5111942;28;20524;-83
2022/05/25 08:28:54;;;;;;;7.30;1.60;;;;;;;-141.50;100.00;63355.56;5098085;28;20067;-83
2022/05/25 08:31:21;;;;;;;3.00;1.38;;;;;;;-141.50;100.00;63355.56;5098809;28;20147;-83
2022/05/25 08:33:47;;;;;;;3.25;1.10;;;;;;;-141.50;100.00;63355.56;5080573;28;20530;-83
2022/05/25 08:36:14;;;;;;;5.32;1.40;;;;;;;-141.50;100.00;63355.56;5094698;28;20078;-83
2022/05/25 08:38:41;;;;;;;3.70;1.17;;;;;;;-141.50;100.00;63355.56;5097980;28;20093;-83
2022/05/25 08:41:09;;;;;;;3.28;1.20;;;;;;;-141.50;100.00;63355.56;5100276;28;20051;-83
2022/05/25 08:43:44;;;;;;;3.97;1.10;;;;;;;-141.50;100.00;63355.56;5096208;28;20075;-84
2022/05/25 08:46:14;;;;;;;4.95;1.30;;;;;;;-141.50;100.00;63355.56;5097182;28;20044;-84
2022/05/25 08:48:45;;;;;;;7.72;1.27;;;;;;;-141.50;100.00;63355.56;5115176;28;20043;-81
2022/05/25 08:51:33;;;;;;;4.43;1.27;;;;;;;-141.50;100.00;63355.56;5122937;28;20091;-82
2022/05/25 08:54:00;;;;;;;3.22;1.10;;;;;;;-141.50;100.00;63355.56;5110860;28;20369;-82
2022/05/25 08:56:43;;;;;;;2.88;1.00;;;;;;;-141.50;100.00;63355.56;5134094;28;20055;-82
2022/05/25 08:59:31;;;;;;;2.28;0.77;;;;;;;-141.50;100.00;63355.56;5116121;28;20081;-82
2022/05/25 09:02:21;;;;;;;4.18;0.80;;;;;;;-141.50;100.00;63355.56;5115239;28;20195;-82
2022/05/25 09:04:55;;;;;;;2.70;0.95;;;;;;;-141.50;100.00;63355.56;5114451;28;20062;-83
2022/05/25 09:08:03;;;;;;;5.50;1.10;;;;;;;-141.50;100.00;63355.56;5111823;28;20480;-80
2022/05/25 09:10:36;;;;;;;2.70;0.90;;;;;;;-141.50;100.00;63355.56;5105984;28;20040;-81
2022/05/25 09:13:18;;;;;;;3.35;1.20;;;;;;;-141.50;100.00;63355.56;5099138;28;20043;-83
2022/05/25 09:18:41;;;;;;;7.80;1.40;;;;;;;-141.50;100.00;63355.56;5115840;28;20069;-82
2022/05/25 09:21:08;;;;;;;5.72;1.50;;;;;;;-141.50;100.00;63355.56;5109949;28;20159;-81
2022/05/25 09:23:35;;;;;;;4.03;1.38;;;;;;;-141.50;100.00;63355.56;5111132;28;20476;-79
2022/05/25 09:26:02;;;;;;;4.70;1.48;;;;;;;-141.50;100.00;63355.56;5093986;28;20052;-83
2022/05/25 09:28:33;;;;;;;3.15;1.20;;;;;;;-141.50;100.00;63355.56;5113186;28;20047;-82
2022/05/25 09:31:02;;;;;;;4.78;1.20;;;;;;;-141.50;100.00;63355.56;5118313;28;20055;-83
2022/05/25 09:33:33;;;;;;;4.53;1.15;;;;;;;-141.50;100.00;63355.56;5100704;28;20097;-82
2022/05/25 09:36:07;;;;;;;3.20;1.15;;;;;;;-141.50;100.00;63355.56;5130658;28;20048;-82
2022/05/25 09:38:41;;;;;;;5.03;1.20;;;;;;;-141.50;100.00;63355.56;5126574;28;20624;-83
2022/05/25 09:41:12;;;;;;;3.60;1.00;;;;;;;-141.50;100.00;63355.56;5113168;28;20048;-80
2022/05/25 09:43:40;;;;;;;2.55;1.10;;;;;;;-141.50;100.00;63355.56;5102373;28;20048;-81
2022/05/25 09:46:19;;;;;;;7.75;1.48;;;;;;;-141.50;100.00;63355.56;5116332;28;20126;-79
2022/05/25 09:48:52;;;;;;;3.33;1.08;;;;;;;-141.50;100.00;63355.56;5120835;28;20156;-79
2022/05/25 09:51:50;;;;;;;2.65;1.00;;;;;;;-141.50;100.00;63355.56;5094595;28;20040;-80
2022/05/25 09:54:25;;;;;;;5.32;1.05;;;;;;;-141.50;100.00;63355.56;5105896;28;20070;-84
2022/05/25 09:56:54;;;;;;;3.03;1.02;;;;;;;-141.50;100.00;63355.56;5125434;28;20043;-83
2022/05/25 09:59:28;;;;;;;2.22;0.90;;;;;;;-141.50;100.00;63355.56;5120197;28;20054;-82
2022/05/25 10:01:55;;;;;;;2.70;1.25;;;;;;;-141.50;100.00;63355.56;5100465;28;20097;-83
2022/05/25 10:04:51;;;;;;;7.38;1.08;;;;;;;-141.50;100.00;63355.56;5120461;28;20052;-84
2022/05/25 10:07:30;;;;;;;6.72;1.10;;;;;;;-141.50;100.00;63355.56;5118997;28;20066;-83
2022/05/25 10:10:05;;;;;;;4.03;1.13;;;;;;;-141.50;100.00;63355.56;5121314;28;20105;-84
2022/05/25 10:12:40;;;;;;;3.30;1.25;;;;;;;-141.50;100.00;63355.56;5118370;28;20546;-83
2022/05/25 10:15:15;;;;;;;3.03;1.13;;;;;;;-141.50;100.00;63355.56;5116083;28;20079;-83
2022/05/25 10:17:46;;;;;;;2.75;0.95;;;;;;;-141.50;100.00;63355.56;5091770;28;20043;-82
2022/05/25 10:20:22;;;;;;;1.35;0.90;;;;;;;-141.50;100.00;63355.56;5093162;28;20550;-82
2022/05/25 10:22:57;;;;;;;3.83;1.00;;;;;;;-141.50;100.00;63355.56;5093289;28;20125;-82
2022/05/25 10:25:42;;;;;;;2.33;1.00;;;;;;;-141.50;100.00;63355.56;5115175;28;20052;-82
2022/05/25 10:28:18;;;;;;;3.80;1.00;;;;;;;-141.50;100.00;63355.56;5111621;28;20051;-81
2022/05/25 10:37:00;;;;;;;3.03;1.03;;;;;;;-141.50;100.00;63355.56;5115870;28;20101;-81
2022/05/25 10:39:33;;;;;;;4.40;1.08;;;;;;;-141.50;100.00;63355.56;5099141;28;20043;-82
2022/05/25 10:42:18;;;;;;;2.90;1.30;;;;;;;-141.50;100.00;63355.56;5118805;28;20066;-83
2022/05/25 10:45:03;;;;;;;2.83;1.00;;;;;;;-141.50;100.00;63355.56;5099411;28;20066;-83
2022/05/25 10:47:35;;;;;;;4.00;1.30;;;;;;;-141.50;100.00;63355.56;5121058;28;20504;-83
2022/05/25 10:50:11;;;;;;;2.72;1.20;;;;;;;-141.50;100.00;63355.56;5105415;28;20078;-81
2022/05/25 10:52:42;;;;;;;;;;;;;;;-141.50;100.00;63355.56;5094059;28;20101;-83
2022/05/25 10:55:09;;;;;;;4.80;1.20;;;;;;;-141.50;100.00;63355.56;5123755;28;19919;-82
2022/05/25 10:57:59;;;;;;;7.32;1.10;;;;;;;-141.50;100.00;63355.56;5105269;28;20073;-82
2022/05/25 11:00:32;;;;;;;4.38;1.35;;;;;;;-141.50;100.00;63355.56;5102286;28;20075;-83
2022/05/25 11:03:26;;;;;;;3.60;0.90;;;;;;;-141.50;100.00;63355.56;5118847;28;20085;-83
2022/05/25 11:06:00;;;;;;;2.78;1.10;;;;;;;-141.50;100.00;63355.56;5121237;28;20082;-83
2022/05/25 11:08:33;;;;;;;2.08;0.90;;;;;;;-141.50;100.00;63355.56;5102550;28;20138;-86
2022/05/25 11:11:25;;;;;;;4.15;1.10;;;;;;;-141.50;100.00;63355.56;5117397;28;20487;-83
2022/05/25 11:14:32;;;;;;;3.70;0.80;;;;;;;-141.50;100.00;63355.56;5113157;28;20105;-82
2022/05/25 11:17:37;;;;;;;4.60;0.95;;;;;;;-141.50;100.00;63355.56;5113992;28;20047;-83
2022/05/25 11:20:13;;;;;;;2.45;0.80;;;;;;;-141.50;100.00;63355.56;5097339;28;20059;-82
2022/05/25 11:23:13;;;;;;;6.40;0.93;;;;;;;-141.50;100.00;63355.56;5097561;28;20051;-80
2022/05/25 11:25:57;;;;;;;2.80;0.75;;;;;;;-141.50;100.00;63355.56;5098220;28;20051;-83
2022/05/25 11:28:55;;;;;;;3.55;0.80;;;;;;;-141.50;100.00;63355.56;5117702;28;20078;-81
2022/05/25 11:31:54;;;;;;;3.15;1.08;;;;;;;-141.50;100.00;63355.56;5098215;28;20492;-83
2022/05/25 11:34:36;;;;;;;5.75;0.90;;;;;;;-141.50;100.00;63355.56;5117752;28;20079;-82
2022/05/25 11:37:16;;;;;;;4.45;0.90;;;;;;;-141.50;100.00;63355.56;5103458;28;20051;-82
2022/05/25 11:40:05;;;;;;;2.08;0.90;;;;;;;-141.50;100.00;63355.56;5104781;28;20044;-83
2022/05/25 11:42:53;;;;;;;3.47;1.00;;;;;;;-141.50;100.00;63355.56;5120662;28;20347;-82
2022/05/25 11:45:33;;;;;;;3.28;0.82;;;;;;;-141.50;100.00;63355.56;5126974;28;20059;-80
2022/05/25 11:48:23;;;;;;;1.27;0.77;;;;;;;-141.50;100.00;63355.56;5132503;28;20047;-80
2022/05/25 11:51:09;;;;;;;2.50;0.80;;;;;;;-141.50;100.00;63355.56;5131906;28;20067;-79
2022/05/25 11:53:51;;;;;;;3.47;1.05;;;;;;;-141.50;100.00;63355.56;5111534;28;20090;-81
2022/05/25 11:56:41;;;;;;;3.20;0.80;;;;;;;-141.50;100.00;63355.56;5121014;28;20048;-82
2022/05/25 11:59:07;;;;;;;;;;;;;;;-141.50;100.00;63355.56;5122656;28;20066;-83
2022/05/25 12:01:43;;;;;;;1.75;1.00;;;;;;;-141.50;100.00;63355.56;5117838;28;19930;-81
2022/05/25 12:04:30;;;;;;;3.80;0.80;;;;;;;-141.50;100.00;63355.56;5115730;28;20056;-80